Time;durP1;ratioP1;P1;durP2;ratioP2;P2;SDS_P1;SDS_P2;PMS_P1;PMS_P2;Temp;Humidity;BMP_temperature;BMP_pressure;BME280_temperature;BME280_humidity;BME280_pressure;Samples;Min_cycle;Max_cycle;Signal;HPM_P1;HPM_P2
2022/12/31 00:01:25;;;;;;;;;;;12.50;99.90;;;;;;5093024;28;19916;-38
2022/12/31 00:03:50;;;;;;;;;;;12.40;99.90;;;;;;5093154;28;20367;-39
2022/12/31 00:06:18;;;;;;;;;;;12.40;99.90;;;;;;5108577;28;19911;-39
2022/12/31 00:08:44;;;;;;;;;;;12.40;99.90;;;;;;5113734;28;19992;-40
2022/12/31 00:11:10;;;;;;;;;;;12.40;99.90;;;;;;5113779;28;19957;-39
2022/12/31 00:13:35;;;;;;;;;;;12.30;99.90;;;;;;5112718;28;19907;-39
2022/12/31 00:16:05;;;;;;;;;;;12.30;99.90;;;;;;5113617;28;19912;-39
2022/12/31 00:18:30;;;;;;;;;;;12.30;99.90;;;;;;5113511;28;19939;-38
2022/12/31 00:20:56;;;;;;;;;;;12.30;99.90;;;;;;5112842;28;20358;-38
2022/12/31 00:23:21;;;;;;;;;;;12.30;99.90;;;;;;5113332;28;19926;-39
2022/12/31 00:25:47;;;;;;;;;;;12.30;99.90;;;;;;5112489;28;19957;-37
2022/12/31 00:28:12;;;;;;;;;;;12.30;99.90;;;;;;5113103;28;19911;-38
2022/12/31 00:30:38;;;;;;;;;;;12.30;99.90;;;;;;5113377;28;19949;-38
2022/12/31 00:33:03;;;;;;;;;;;12.30;99.90;;;;;;5112508;28;19908;-39
2022/12/31 00:35:29;;;;;;;;;;;12.20;99.90;;;;;;5113292;28;19914;-37
2022/12/31 00:37:55;;;;;;;;;;;12.20;99.90;;;;;;5113252;28;20273;-39
2022/12/31 00:40:20;;;;;;;;;;;12.20;99.90;;;;;;5112455;28;19915;-37
2022/12/31 00:42:46;;;;;;;;;;;12.20;99.90;;;;;;5113197;28;19981;-39
2022/12/31 00:45:11;;;;;;;;;;;12.20;99.90;;;;;;5112887;28;20010;-37
2022/12/31 00:47:37;;;;;;;;;;;12.20;99.90;;;;;;5112332;28;19908;-38
2022/12/31 00:50:03;;;;;;;;;;;12.20;99.90;;;;;;5113156;28;19908;-38
2022/12/31 00:52:28;;;;;;;;;;;12.10;99.90;;;;;;5112862;28;19920;-38
2022/12/31 00:54:54;;;;;;;;;;;12.10;99.90;;;;;;5112421;28;19907;-38
2022/12/31 00:57:19;;;;;;;;;;;12.10;99.90;;;;;;5113015;28;20003;-38
2022/12/31 00:59:45;;;;;;;;;;;12.10;99.90;;;;;;5113087;28;19908;-38
2022/12/31 01:02:10;;;;;;;;;;;12.10;99.90;;;;;;5112118;28;20112;-38
2022/12/31 01:04:36;;;;;;;;;;;12.10;99.90;;;;;;5115386;28;20288;-38
2022/12/31 01:07:01;;;;;;;;;;;12.20;99.90;;;;;;5117081;28;19965;-39
2022/12/31 01:09:27;;;;;;;;;;;12.10;99.90;;;;;;5116219;28;19908;-37
2022/12/31 01:11:52;;;;;;;;;;;12.20;99.90;;;;;;5117142;28;19985;-37
2022/12/31 01:14:18;;;;;;;;;;;12.20;99.90;;;;;;5116673;28;20410;-38
2022/12/31 01:16:48;;;;;;;;;;;12.20;99.90;;;;;;5116248;28;19908;-38
2022/12/31 01:19:18;;;;;;;;;;;12.20;99.90;;;;;;5116896;28;19963;-39
2022/12/31 01:21:44;;;;;;;;;;;12.20;99.90;;;;;;5116601;28;19998;-37
2022/12/31 01:24:10;;;;;;;;;;;12.20;99.90;;;;;;5115946;28;19912;-37
2022/12/31 01:26:36;;;;;;;;;;;12.20;99.90;;;;;;5116864;28;19961;-38
2022/12/31 01:29:01;;;;;;;;;;;12.20;99.90;;;;;;5116050;28;19919;-38
2022/12/31 01:31:27;;;;;;;;;;;12.20;99.90;;;;;;5116591;28;20014;-39
2022/12/31 01:33:52;;;;;;;;;;;12.20;99.90;;;;;;5116654;28;19915;-38
2022/12/31 01:36:20;;;;;;;;;;;12.20;99.90;;;;;;5115710;28;20440;-38
2022/12/31 01:38:45;;;;;;;;;;;12.20;99.90;;;;;;5116638;28;19943;-39
2022/12/31 01:41:15;;;;;;;;;;;12.20;99.90;;;;;;5116395;27;19996;-37
2022/12/31 01:43:53;;;;;;;;;;;12.20;99.90;;;;;;5115584;28;20393;-39
2022/12/31 01:46:27;;;;;;;;;;;12.20;99.90;;;;;;5116169;28;19912;-38
2022/12/31 01:48:55;;;;;;;;;;;12.20;99.90;;;;;;5116245;28;19914;-39
2022/12/31 01:51:21;;;;;;;;;;;12.20;99.90;;;;;;5114407;28;19936;-39
2022/12/31 01:53:47;;;;;;;;;;;12.20;99.90;;;;;;5109549;27;20401;-37
2022/12/31 01:56:12;;;;;;;;;;;12.20;99.90;;;;;;5095711;28;19909;-38
2022/12/31 01:58:41;;;;;;;;;;;12.10;99.90;;;;;;5095192;28;19997;-37
2022/12/31 02:01:07;;;;;;;;;;;12.10;99.90;;;;;;5099207;28;19930;-37
2022/12/31 02:03:33;;;;;;;;;;;12.10;99.90;;;;;;5115965;28;19923;-38
2022/12/31 02:06:06;;;;;;;;;;;12.10;99.90;;;;;;5115318;28;19907;-37
2022/12/31 02:08:32;;;;;;;;;;;12.10;99.90;;;;;;5115946;28;19907;-39
2022/12/31 02:10:57;;;;;;;;;;;12.10;99.90;;;;;;5115936;28;19908;-39
2022/12/31 02:13:23;;;;;;;;;;;12.10;99.90;;;;;;5115054;28;20277;-38
2022/12/31 02:15:48;;;;;;;;;;;12.10;99.90;;;;;;5115070;28;19911;-37
2022/12/31 02:18:25;;;;;;;;;;;12.10;99.90;;;;;;5114956;28;19908;-38
2022/12/31 02:21:06;;;;;;;;;;;12.00;99.90;;;;;;5115769;27;20361;-36
2022/12/31 02:23:34;;;;;;;;;;;12.00;99.90;;;;;;5115203;28;20010;-36
2022/12/31 02:26:05;;;;;;;;;;;12.00;99.90;;;;;;5114871;28;19912;-38
2022/12/31 02:28:37;;;;;;;;;;;12.00;99.90;;;;;;5115689;28;19915;-39
2022/12/31 02:31:07;;;;;;;;;;;11.90;99.90;;;;;;5115526;28;20398;-37
2022/12/31 02:33:50;;;;;;;;;;;12.00;99.90;;;;;;5114967;28;20354;-40
2022/12/31 02:36:19;;;;;;;;;;;12.00;99.90;;;;;;5115491;28;19986;-37
2022/12/31 02:38:45;;;;;;;;;;;11.90;99.90;;;;;;5115458;28;19908;-38
2022/12/31 02:41:48;;;;;;;;;;;12.00;99.90;;;;;;5114132;28;19971;-41
2022/12/31 02:44:00;;;;;;;;;;;11.90;99.90;;;;;;5115408;28;19923;-38
2022/12/31 02:46:40;;;;;;;;;;;11.90;99.90;;;;;;5114403;28;19908;-38
2022/12/31 02:49:14;;;;;;;;;;;11.90;99.90;;;;;;5115194;28;19907;-39
2022/12/31 02:52:02;;;;;;;;;;;11.90;99.90;;;;;;5115188;28;19960;-37
2022/12/31 02:54:40;;;;;;;;;;;11.80;99.90;;;;;;5108546;28;19920;-37
2022/12/31 02:57:13;;;;;;;;;;;11.80;99.90;;;;;;5106691;28;19919;-38
2022/12/31 03:02:34;;;;;;;;;;;11.70;99.90;;;;;;5093737;28;19966;-38
2022/12/31 03:05:00;;;;;;;;;;;11.70;99.90;;;;;;5094519;28;19933;-39
2022/12/31 03:07:27;;;;;;;;;;;11.70;99.90;;;;;;5093921;28;19912;-39
2022/12/31 03:09:53;;;;;;;;;;;11.60;99.90;;;;;;5094440;28;20363;-38
2022/12/31 03:15:06;;;;;;;;;;;11.60;99.90;;;;;;5114226;28;19934;-38
2022/12/31 03:17:32;;;;;;;;;;;11.50;99.90;;;;;;5114569;27;19912;-39
2022/12/31 03:22:42;;;;;;;;;;;11.40;99.90;;;;;;5114007;28;19962;-37
2022/12/31 03:27:54;;;;;;;;;;;11.40;99.90;;;;;;5113977;28;20333;-38
2022/12/31 03:30:21;;;;;;;;;;;11.40;99.90;;;;;;5113480;28;20369;-38
2022/12/31 03:32:47;;;;;;;;;;;11.40;99.90;;;;;;5114623;28;20308;-38
2022/12/31 03:35:13;;;;;;;;;;;11.40;99.90;;;;;;5114331;28;20014;-39
2022/12/31 03:37:39;;;;;;;;;;;11.40;99.90;;;;;;5113468;28;19912;-38
2022/12/31 03:40:06;;;;;;;;;;;11.40;99.90;;;;;;5114212;28;19908;-38
2022/12/31 03:42:31;;;;;;;;;;;11.40;99.90;;;;;;5113633;27;19974;-37
2022/12/31 03:44:57;;;;;;;;;;;11.40;99.90;;;;;;5113233;28;19951;-37
2022/12/31 03:47:22;;;;;;;;;;;11.40;99.90;;;;;;5114093;28;19912;-37
2022/12/31 03:49:47;;;;;;;;;;;11.40;99.90;;;;;;5112909;28;20369;-39
2022/12/31 03:52:13;;;;;;;;;;;11.40;99.90;;;;;;5113646;28;19931;-39
2022/12/31 03:54:38;;;;;;;;;;;11.40;99.90;;;;;;5114056;28;20006;-38
2022/12/31 03:57:04;;;;;;;;;;;11.40;99.90;;;;;;5113052;28;19907;-38
2022/12/31 03:59:29;;;;;;;;;;;11.50;99.90;;;;;;5113848;28;19939;-38
2022/12/31 04:01:55;;;;;;;;;;;11.40;99.90;;;;;;5113749;28;20362;-39
2022/12/31 04:04:20;;;;;;;;;;;11.40;99.90;;;;;;5113202;28;19963;-39
2022/12/31 04:06:47;;;;;;;;;;;11.40;99.90;;;;;;5113883;28;20296;-38
2022/12/31 04:09:12;;;;;;;;;;;11.40;99.90;;;;;;5113302;28;19964;-39
2022/12/31 04:11:37;;;;;;;;;;;11.40;99.90;;;;;;5112905;28;20327;-39
2022/12/31 04:14:03;;;;;;;;;;;11.40;99.90;;;;;;5113490;28;19912;-38
2022/12/31 04:16:29;;;;;;;;;;;11.40;99.90;;;;;;5113511;28;19908;-38
2022/12/31 04:18:54;;;;;;;;;;;11.40;99.90;;;;;;5111056;28;19907;-39
2022/12/31 04:21:20;;;;;;;;;;;11.40;99.90;;;;;;5108059;28;20360;-37
2022/12/31 04:23:45;;;;;;;;;;;11.50;99.90;;;;;;5113109;28;19919;-38
2022/12/31 04:26:11;;;;;;;;;;;11.50;99.90;;;;;;5112604;28;19994;-39
2022/12/31 04:28:36;;;;;;;;;;;11.50;99.90;;;;;;5112779;28;20285;-37
2022/12/31 04:31:03;;;;;;;;;;;11.50;99.90;;;;;;5113404;28;20002;-38
2022/12/31 04:33:28;;;;;;;;;;;11.50;99.90;;;;;;5112471;28;19946;-37
2022/12/31 04:35:59;;;;;;;;;;;11.50;99.90;;;;;;5113410;28;19946;-37
2022/12/31 04:38:24;;;;;;;;;;;11.50;99.90;;;;;;5112756;28;19907;-38
2022/12/31 04:43:34;;;;;;;;;;;11.50;99.90;;;;;;5113105;28;20286;-38
2022/12/31 04:45:59;;;;;;;;;;;11.60;99.90;;;;;;5112419;28;19908;-38
2022/12/31 04:48:25;;;;;;;;;;;11.50;99.90;;;;;;5113092;28;19976;-39
2022/12/31 04:50:50;;;;;;;;;;;11.50;99.90;;;;;;5113224;28;19912;-38
2022/12/31 04:53:16;;;;;;;;;;;11.50;99.90;;;;;;5111898;28;20252;-38
2022/12/31 04:55:41;;;;;;;;;;;11.50;99.90;;;;;;5113033;28;19966;-41
2022/12/31 04:58:06;;;;;;;;;;;11.50;99.90;;;;;;5112971;28;20354;-38
2022/12/31 05:00:32;;;;;;;;;;;11.50;99.90;;;;;;5111985;28;19912;-37
2022/12/31 05:02:57;;;;;;;;;;;11.50;99.90;;;;;;5112900;28;19922;-38
2022/12/31 05:05:23;;;;;;;;;;;11.50;99.90;;;;;;5112876;28;19908;-40
2022/12/31 05:07:48;;;;;;;;;;;11.50;99.90;;;;;;5112014;28;20323;-37
2022/12/31 05:10:14;;;;;;;;;;;11.50;99.90;;;;;;5112847;28;19995;-38
2022/12/31 05:12:39;;;;;;;;;;;11.50;99.90;;;;;;5113051;28;20259;-40
2022/12/31 05:15:05;;;;;;;;;;;11.40;99.90;;;;;;5112097;28;19915;-42
2022/12/31 05:17:31;;;;;;;;;;;11.40;99.90;;;;;;5111835;28;19912;-37
2022/12/31 05:19:56;;;;;;;;;;;11.40;99.90;;;;;;5095219;28;19955;-37
2022/12/31 05:22:27;;;;;;;;;;;11.40;99.90;;;;;;5103316;28;19927;-39
2022/12/31 05:24:53;;;;;;;;;;;11.40;99.90;;;;;;5111033;28;20323;-39
2022/12/31 05:27:18;;;;;;;;;;;11.40;99.90;;;;;;5108476;28;19908;-37
2022/12/31 05:29:44;;;;;;;;;;;11.30;99.90;;;;;;5110096;28;20365;-37
2022/12/31 05:32:09;;;;;;;;;;;11.30;99.90;;;;;;5110975;28;19911;-38
2022/12/31 05:34:35;;;;;;;;;;;11.30;99.90;;;;;;5111166;28;20060;-38
2022/12/31 05:37:00;;;;;;;;;;;11.30;99.90;;;;;;5110481;28;20259;-39
2022/12/31 05:39:25;;;;;;;;;;;11.40;99.90;;;;;;5110999;28;19912;-39
2022/12/31 05:41:51;;;;;;;;;;;11.30;99.90;;;;;;5111085;28;19968;-40
2022/12/31 05:44:16;;;;;;;;;;;11.30;99.90;;;;;;5110330;28;20366;-38
2022/12/31 05:46:42;;;;;;;;;;;11.30;99.90;;;;;;5111286;28;19911;-39
2022/12/31 05:49:07;;;;;;;;;;;11.30;99.90;;;;;;5110949;28;19942;-37
2022/12/31 05:51:33;;;;;;;;;;;11.30;99.90;;;;;;5113979;28;19908;-38
2022/12/31 05:53:58;;;;;;;;;;;11.30;99.90;;;;;;5114542;28;19928;-38
2022/12/31 05:56:24;;;;;;;;;;;11.30;99.90;;;;;;5114044;28;20353;-38
2022/12/31 05:58:49;;;;;;;;;;;11.30;99.90;;;;;;5114367;28;19924;-38
2022/12/31 06:01:14;;;;;;;;;;;11.40;99.90;;;;;;5114533;28;19915;-39
2022/12/31 06:03:40;;;;;;;;;;;11.30;99.90;;;;;;5114834;28;19922;-38
2022/12/31 06:06:06;;;;;;;;;;;11.40;99.90;;;;;;5115956;28;19907;-38
2022/12/31 06:08:32;;;;;;;;;;;11.40;99.90;;;;;;5115789;28;19911;-38
2022/12/31 06:10:57;;;;;;;;;;;11.40;99.90;;;;;;5115273;28;19908;-39
2022/12/31 06:13:23;;;;;;;;;;;11.40;99.90;;;;;;5115614;28;20261;-39
2022/12/31 06:15:48;;;;;;;;;;;11.40;99.90;;;;;;5115891;28;20012;-39
2022/12/31 06:18:14;;;;;;;;;;;11.40;99.90;;;;;;5115048;27;19908;-39
2022/12/31 06:20:39;;;;;;;;;;;11.50;99.90;;;;;;5115868;28;19908;-40
2022/12/31 06:23:05;;;;;;;;;;;11.40;99.90;;;;;;5115526;28;20263;-40
2022/12/31 06:25:30;;;;;;;;;;;11.40;99.90;;;;;;5115077;28;19982;-38
2022/12/31 06:27:56;;;;;;;;;;;11.40;99.90;;;;;;5115507;27;19908;-39
2022/12/31 06:30:21;;;;;;;;;;;11.40;99.90;;;;;;5115238;27;20006;-39
2022/12/31 06:32:47;;;;;;;;;;;11.50;99.90;;;;;;5114785;28;20307;-38
2022/12/31 06:35:13;;;;;;;;;;;11.50;99.90;;;;;;5115496;28;19912;-38
2022/12/31 06:37:38;;;;;;;;;;;11.40;99.90;;;;;;5114949;28;20361;-39
2022/12/31 06:40:04;;;;;;;;;;;11.40;99.90;;;;;;5114631;28;19908;-38
2022/12/31 06:42:30;;;;;;;;;;;11.40;99.90;;;;;;5115006;28;19919;-38
2022/12/31 06:44:56;;;;;;;;;;;11.40;99.90;;;;;;5115373;28;19994;-38
2022/12/31 06:47:22;;;;;;;;;;;11.40;99.90;;;;;;5114520;28;19918;-38
2022/12/31 06:49:47;;;;;;;;;;;11.40;99.90;;;;;;5115258;28;19908;-37
2022/12/31 06:52:13;;;;;;;;;;;11.40;99.90;;;;;;5113992;28;19959;-40
2022/12/31 06:54:38;;;;;;;;;;;11.40;99.90;;;;;;5113497;28;20351;-39
2022/12/31 06:57:04;;;;;;;;;;;11.40;99.90;;;;;;5114867;28;19995;-38
2022/12/31 06:59:30;;;;;;;;;;;11.40;99.90;;;;;;5114891;28;19908;-40
2022/12/31 07:02:01;;;;;;;;;;;11.30;99.90;;;;;;5114413;28;19911;-39
2022/12/31 07:04:44;;;;;;;;;;;11.30;99.90;;;;;;5114883;28;19908;-38
2022/12/31 07:07:10;;;;;;;;;;;11.30;99.90;;;;;;5113340;28;20278;-39
2022/12/31 07:09:53;;;;;;;;;;;11.30;99.90;;;;;;5114639;27;20431;-39
2022/12/31 07:12:27;;;;;;;;;;;11.30;99.90;;;;;;5107182;28;19948;-41
2022/12/31 07:15:05;;;;;;;;;;;11.30;99.90;;;;;;5093647;28;19912;-39
2022/12/31 07:17:37;;;;;;;;;;;11.30;99.90;;;;;;5094125;28;19958;-39
2022/12/31 07:20:15;;;;;;;;;;;11.30;99.90;;;;;;5094117;28;19918;-41
2022/12/31 07:22:42;;;;;;;;;;;11.30;99.90;;;;;;5113415;28;19920;-41
2022/12/31 07:25:15;;;;;;;;;;;11.30;99.90;;;;;;5114066;28;20411;-39
2022/12/31 07:27:46;;;;;;;;;;;11.30;99.90;;;;;;5113629;28;19914;-39
2022/12/31 07:30:16;;;;;;;;;;;11.30;99.90;;;;;;5114403;28;19943;-39
2022/12/31 07:33:00;;;;;;;;;;;11.30;99.90;;;;;;5114508;27;19961;-40
2022/12/31 07:35:43;;;;;;;;;;;11.30;99.90;;;;;;5113471;28;19918;-40
2022/12/31 07:38:08;;;;;;;;;;;11.30;99.90;;;;;;5114116;28;19908;-39
2022/12/31 07:40:50;;;;;;;;;;;11.30;99.90;;;;;;5110423;28;19915;-38
2022/12/31 07:43:27;;;;;;;;;;;11.30;99.90;;;;;;5092890;28;19916;-39
2022/12/31 07:46:11;;;;;;;;;;;11.30;99.90;;;;;;5093765;28;19938;-39
2022/12/31 07:48:36;;;;;;;;;;;11.30;99.90;;;;;;5093541;28;19909;-39
2022/12/31 07:51:02;;;;;;;;;;;11.30;99.90;;;;;;5100944;28;19916;-39
2022/12/31 07:53:28;;;;;;;;;;;11.30;99.90;;;;;;5113721;28;20286;-39
2022/12/31 07:55:55;;;;;;;;;;;11.30;99.90;;;;;;5113270;28;19907;-40
2022/12/31 07:58:27;;;;;;;;;;;11.40;99.90;;;;;;5113820;28;20010;-38
2022/12/31 08:00:54;;;;;;;;;;;11.40;99.90;;;;;;5113907;28;19911;-39
2022/12/31 08:03:38;;;;;;;;;;;11.40;99.90;;;;;;5112518;27;19922;-39
2022/12/31 08:06:10;;;;;;;;;;;11.40;99.90;;;;;;5113760;28;19943;-38
2022/12/31 08:08:45;;;;;;;;;;;11.40;99.90;;;;;;5113471;28;19957;-39
2022/12/31 08:11:29;;;;;;;;;;;11.50;99.90;;;;;;5107040;27;19919;-39
2022/12/31 08:13:55;;;;;;;;;;;11.50;99.90;;;;;;5107639;28;19920;-39
2022/12/31 08:16:21;;;;;;;;;;;11.50;99.90;;;;;;5102086;28;19908;-39
2022/12/31 08:18:46;;;;;;;;;;;11.50;99.90;;;;;;5112987;28;19915;-39
2022/12/31 08:21:18;;;;;;;;;;;11.60;99.90;;;;;;5113497;28;20324;-39
2022/12/31 08:24:06;;;;;;;;;;;11.60;99.90;;;;;;5113440;28;19916;-38
2022/12/31 08:26:35;;;;;;;;;;;11.60;99.90;;;;;;5113249;28;19918;-39
2022/12/31 08:29:06;;;;;;;;;;;11.60;99.90;;;;;;5112855;28;20354;-38
2022/12/31 08:31:50;;;;;;;;;;;11.60;99.90;;;;;;5112478;28;19912;-39
2022/12/31 08:34:42;;;;;;;;;;;11.70;99.90;;;;;;5112205;28;20377;-41
2022/12/31 08:37:10;;;;;;;;;;;11.70;99.90;;;;;;5110612;28;19916;-40
2022/12/31 08:39:54;;;;;;;;;;;11.80;99.90;;;;;;5112617;28;20004;-39
2022/12/31 08:42:35;;;;;;;;;;;11.80;99.90;;;;;;5094772;28;19979;-39
2022/12/31 08:45:01;;;;;;;;;;;11.80;99.90;;;;;;5092322;28;19999;-37
2022/12/31 08:47:32;;;;;;;;;;;11.90;99.90;;;;;;5111762;28;20053;-39
2022/12/31 08:49:58;;;;;;;;;;;12.00;99.90;;;;;;5112056;28;19912;-39
2022/12/31 08:52:24;;;;;;;;;;;12.00;99.90;;;;;;5105544;28;20350;-38
2022/12/31 08:54:50;;;;;;;;;;;12.10;99.90;;;;;;5097514;28;19912;-40
2022/12/31 08:57:39;;;;;;;;;;;12.10;99.90;;;;;;5092483;28;20251;-39
2022/12/31 09:00:12;;;;;;;;;;;12.10;99.90;;;;;;5091596;28;19935;-38
2022/12/31 09:02:47;;;;;;;;;;;12.20;99.90;;;;;;5092437;28;20450;-39
2022/12/31 09:05:22;;;;;;;;;;;12.20;99.90;;;;;;5092339;28;19935;-38
2022/12/31 09:07:47;;;;;;;;;;;12.20;99.90;;;;;;5091636;28;20367;-38
2022/12/31 09:10:16;;;;;;;;;;;12.30;99.90;;;;;;5092467;28;19915;-38
2022/12/31 09:12:48;;;;;;;;;;;12.30;99.90;;;;;;5094558;28;19916;-38
2022/12/31 09:15:19;;;;;;;;;;;12.40;99.90;;;;;;5090635;28;19938;-39
2022/12/31 09:17:45;;;;;;;;;;;12.50;99.90;;;;;;5092438;28;19908;-38
2022/12/31 09:20:16;;;;;;;;;;;12.60;99.90;;;;;;5105554;28;20274;-39
2022/12/31 09:22:42;;;;;;;;;;;12.70;99.90;;;;;;5112619;28;19922;-38
2022/12/31 09:25:12;;;;;;;;;;;12.80;99.90;;;;;;5113915;28;19908;-37
2022/12/31 09:27:40;;;;;;;;;;;12.80;99.90;;;;;;5114661;28;20336;-39
2022/12/31 09:30:08;;;;;;;;;;;12.90;99.90;;;;;;5115513;28;19938;-37
2022/12/31 09:32:37;;;;;;;;;;;12.90;99.90;;;;;;5112947;28;19957;-37
2022/12/31 09:35:08;;;;;;;;;;;12.90;99.90;;;;;;5113014;28;19911;-38
2022/12/31 09:37:37;;;;;;;;;;;12.90;99.90;;;;;;5114151;27;19986;-38
2022/12/31 09:40:14;;;;;;;;;;;13.00;99.90;;;;;;5114453;28;19931;-38
2022/12/31 09:42:46;;;;;;;;;;;13.00;99.90;;;;;;5111962;28;19916;-37
2022/12/31 09:45:22;;;;;;;;;;;13.00;99.90;;;;;;5114230;28;19919;-39
2022/12/31 09:48:07;;;;;;;;;;;13.00;99.90;;;;;;5114383;28;19912;-39
2022/12/31 09:50:32;;;;;;;;;;;13.00;99.90;;;;;;5113110;28;19965;-38
2022/12/31 09:53:00;;;;;;;;;;;13.00;99.90;;;;;;5114461;28;20278;-37
2022/12/31 09:55:32;;;;;;;;;;;13.10;99.90;;;;;;5113758;28;19908;-38
2022/12/31 09:57:57;;;;;;;;;;;13.20;99.90;;;;;;5108824;28;19912;-39
2022/12/31 10:00:29;;;;;;;;;;;13.20;99.90;;;;;;5109950;28;20018;-38
2022/12/31 10:03:03;;;;;;;;;;;13.20;99.90;;;;;;5113965;28;19973;-37
2022/12/31 10:05:47;;;;;;;;;;;13.20;99.90;;;;;;5114555;28;20243;-39
2022/12/31 10:08:31;;;;;;;;;;;13.20;99.90;;;;;;5113999;28;19908;-39
2022/12/31 10:10:58;;;;;;;;;;;13.40;99.90;;;;;;5111153;28;19911;-37
2022/12/31 10:13:26;;;;;;;;;;;13.40;99.90;;;;;;5114272;28;20354;-38
2022/12/31 10:16:04;;;;;;;;;;;13.40;99.90;;;;;;5115382;28;19999;-38
2022/12/31 10:18:35;;;;;;;;;;;13.50;99.90;;;;;;5114525;28;19911;-38
2022/12/31 10:21:19;;;;;;;;;;;13.50;99.90;;;;;;5115379;28;20358;-39
2022/12/31 10:23:54;;;;;;;;;;;13.50;99.90;;;;;;5094527;28;19966;-37
2022/12/31 10:26:19;;;;;;;;;;;13.40;99.90;;;;;;5094880;28;19908;-39
2022/12/31 10:29:08;;;;;;;;;;;13.40;99.90;;;;;;5104861;28;19964;-39
2022/12/31 10:31:38;;;;;;;;;;;13.40;99.90;;;;;;5086567;28;19934;-39
2022/12/31 10:34:12;;;;;;;;;;;13.50;99.90;;;;;;5095158;28;19908;-36
2022/12/31 10:37:01;;;;;;;;;;;13.50;99.90;;;;;;5096502;28;20002;-37
2022/12/31 10:39:41;;;;;;;;;;;13.60;99.90;;;;;;5088754;28;19912;-38
2022/12/31 10:42:25;;;;;;;;;;;13.60;99.90;;;;;;5095263;28;19937;-37
2022/12/31 10:44:50;;;;;;;;;;;13.70;99.90;;;;;;5102386;28;19908;-38
2022/12/31 10:47:25;;;;;;;;;;;13.70;99.90;;;;;;5114762;28;20177;-37
2022/12/31 10:49:51;;;;;;;;;;;13.80;99.90;;;;;;5114517;28;19916;-38
2022/12/31 10:52:19;;;;;;;;;;;13.80;99.90;;;;;;5109645;28;20385;-38
2022/12/31 10:54:52;;;;;;;;;;;13.80;99.90;;;;;;5094387;28;19912;-38
2022/12/31 10:57:20;;;;;;;;;;;13.80;99.90;;;;;;5085000;28;19963;-39
2022/12/31 10:59:48;;;;;;;;;;;13.80;99.90;;;;;;5073590;28;19912;-39
2022/12/31 11:02:34;;;;;;;;;;;13.90;99.90;;;;;;5085352;28;20053;-38
2022/12/31 11:05:05;;;;;;;;;;;13.90;99.90;;;;;;5076730;28;19909;-37
2022/12/31 11:07:34;;;;;;;;;;;13.90;99.90;;;;;;5073410;28;19909;-38
2022/12/31 11:10:18;;;;;;;;;;;13.90;99.90;;;;;;5074232;28;20010;-38
2022/12/31 11:12:59;;;;;;;;;;;13.90;99.90;;;;;;5084277;28;20042;-37
2022/12/31 11:15:31;;;;;;;;;;;13.80;99.90;;;;;;5087840;28;19920;-41
2022/12/31 11:17:57;;;;;;;;;;;13.70;99.90;;;;;;5090701;28;19974;-37
2022/12/31 11:20:41;;;;;;;;;;;13.70;99.90;;;;;;5089644;28;20374;-37
2022/12/31 11:23:09;;;;;;;;;;;13.60;99.90;;;;;;5102106;28;20310;-37
2022/12/31 11:25:53;;;;;;;;;;;13.60;99.90;;;;;;5104020;28;20359;-36
2022/12/31 11:28:40;;;;;;;;;;;13.50;99.90;;;;;;5095330;28;19946;-36
2022/12/31 11:31:26;;;;;;;;;;;13.50;99.90;;;;;;5087028;28;19991;-35
2022/12/31 11:33:51;;;;;;;;;;;13.40;99.90;;;;;;5074771;28;19948;-36
2022/12/31 11:36:31;;;;;;;;;;;13.40;99.90;;;;;;5093872;28;19963;-36
2022/12/31 11:39:22;;;;;;;;;;;13.40;99.90;;;;;;5094180;28;19915;-36
2022/12/31 11:41:53;;;;;;;;;;;13.40;99.90;;;;;;5085561;28;19916;-36
2022/12/31 11:44:37;;;;;;;;;;;13.40;99.90;;;;;;5099210;28;19927;-36
2022/12/31 11:47:10;;;;;;;;;;;13.40;99.90;;;;;;5113471;28;19911;-36
2022/12/31 11:49:47;;;;;;;;;;;13.40;99.90;;;;;;5109437;28;20255;-36
2022/12/31 11:52:15;;;;;;;;;;;13.50;99.90;;;;;;5099489;28;20014;-37
2022/12/31 11:54:48;;;;;;;;;;;13.50;99.90;;;;;;5114124;28;19908;-37
2022/12/31 11:57:25;;;;;;;;;;;13.60;99.90;;;;;;5113153;28;19957;-37
2022/12/31 11:59:53;;;;;;;;;;;13.60;99.90;;;;;;5111490;28;20863;-38
2022/12/31 12:02:35;;;;;;;;;;;13.60;99.90;;;;;;5097173;28;20426;-37
2022/12/31 12:05:03;;;;;;;;;;;13.60;99.90;;;;;;5093146;28;19908;-36
2022/12/31 12:07:30;;;;;;;;;;;13.70;99.90;;;;;;5093311;28;19931;-37
2022/12/31 12:09:56;;;;;;;;;;;13.70;99.90;;;;;;5092691;28;19999;-36
2022/12/31 12:12:22;;;;;;;;;;;13.70;99.90;;;;;;5093285;28;20377;-37
2022/12/31 12:14:52;;;;;;;;;;;13.80;99.90;;;;;;5093337;28;19962;-36
2022/12/31 12:17:30;;;;;;;;;;;13.80;99.90;;;;;;5092301;28;19944;-37
2022/12/31 12:19:58;;;;;;;;;;;13.80;99.90;;;;;;5093229;28;20366;-38
2022/12/31 12:22:25;;;;;;;;;;;13.80;99.90;;;;;;5101223;28;19924;-37
2022/12/31 12:24:54;;;;;;;;;;;13.90;99.90;;;;;;5112509;28;19912;-38
2022/12/31 12:27:21;;;;;;;;;;;13.90;99.90;;;;;;5113381;28;19912;-37
2022/12/31 12:29:47;;;;;;;;;;;13.90;99.90;;;;;;5113422;28;19908;-37
2022/12/31 12:32:14;;;;;;;;;;;13.90;99.90;;;;;;5112618;28;19915;-36
2022/12/31 12:34:40;;;;;;;;;;;14.00;99.90;;;;;;5113575;28;19907;-38
2022/12/31 12:37:35;;;;;;;;;;;14.00;99.90;;;;;;5113215;28;19908;-36
2022/12/31 12:40:03;;;;;;;;;;;14.00;99.90;;;;;;5099725;28;20010;-38
2022/12/31 12:42:29;;;;;;;;;;;14.00;99.90;;;;;;5113164;28;20000;-38
2022/12/31 12:45:06;;;;;;;;;;;14.00;99.90;;;;;;5112540;28;19954;-37
2022/12/31 12:47:32;;;;;;;;;;;14.00;99.90;;;;;;5113192;28;20008;-36
2022/12/31 12:49:57;;;;;;;;;;;14.00;99.90;;;;;;5113216;28;19953;-35
2022/12/31 12:52:29;;;;;;;;;;;14.00;99.90;;;;;;5110329;28;20004;-37
2022/12/31 12:55:13;;;;;;;;;;;13.90;99.90;;;;;;5093661;28;19916;-38
2022/12/31 12:57:57;;;;;;;;;;;13.90;99.90;;;;;;5109087;28;19912;-38
2022/12/31 13:00:45;;;;;;;;;;;14.00;99.90;;;;;;5103412;28;21033;-38
2022/12/31 13:03:20;;;;;;;;;;;14.00;99.90;;;;;;5085832;28;19924;-37
2022/12/31 13:06:04;;;;;;;;;;;13.90;99.90;;;;;;5096237;28;19908;-38
2022/12/31 13:08:48;;;;;;;;;;;13.90;99.90;;;;;;5095318;28;19912;-39
2022/12/31 13:11:14;;;;;;;;;;;13.90;99.90;;;;;;5114329;27;20335;-37
2022/12/31 13:13:58;;;;;;;;;;;13.80;99.90;;;;;;5121269;27;19915;-37
2022/12/31 13:16:26;;;;;;;;;;;13.80;99.90;;;;;;5120633;27;19912;-38
2022/12/31 13:19:03;;;;;;;;;;;13.80;99.90;;;;;;5118352;27;19959;-38
2022/12/31 13:21:36;;;;;;;;;;;13.70;99.90;;;;;;5113761;27;19912;-37
2022/12/31 13:24:04;;;;;;;;;;;13.80;99.90;;;;;;5124259;27;19965;-37
2022/12/31 13:26:37;;;;;;;;;;;13.70;99.90;;;;;;5112688;27;20433;-37
2022/12/31 13:29:04;;;;;;;;;;;13.70;99.90;;;;;;5120391;27;19912;-37
2022/12/31 13:31:34;;;;;;;;;;;13.70;99.90;;;;;;5121621;27;19916;-37
2022/12/31 13:34:05;;;;;;;;;;;13.70;99.90;;;;;;5120565;27;19912;-37
2022/12/31 13:36:31;;;;;;;;;;;13.60;99.90;;;;;;5137093;27;19908;-39
2022/12/31 13:38:59;;;;;;;;;;;13.60;99.90;;;;;;5137159;27;20369;-38
2022/12/31 13:41:27;;;;;;;;;;;13.60;99.90;;;;;;5136345;27;19998;-37
2022/12/31 13:44:19;;;;;;;;;;;13.40;99.90;;;;;;5136946;27;19927;-38
2022/12/31 13:46:51;;;;;;;;;;;13.40;99.90;;;;;;5131711;27;19907;-38
2022/12/31 13:49:22;;;;;;;;;;;13.40;99.90;;;;;;5131532;27;19936;-36
2022/12/31 13:51:53;;;;;;;;;;;13.40;99.90;;;;;;5104400;28;20170;-37
2022/12/31 13:54:24;;;;;;;;;;;13.30;99.90;;;;;;5121881;27;19912;-37
2022/12/31 13:56:50;;;;;;;;;;;13.30;99.90;;;;;;5126932;27;19911;-39
2022/12/31 13:59:20;;;;;;;;;;;13.30;99.90;;;;;;5126626;27;20335;-39
2022/12/31 14:02:03;;;;;;;;;;;13.30;99.90;;;;;;5102852;28;19980;-39
2022/12/31 14:04:47;;;;;;;;;;;13.30;99.90;;;;;;5117183;27;19986;-38
2022/12/31 14:07:21;;;;;;;;;;;13.30;99.90;;;;;;5109084;27;19992;-39
2022/12/31 14:09:46;;;;;;;;;;;13.30;99.90;;;;;;5119744;27;20006;-37
2022/12/31 14:12:20;;;;;;;;;;;13.30;99.90;;;;;;5135588;27;20361;-36
2022/12/31 14:14:45;;;;;;;;;;;13.30;99.90;;;;;;5136604;27;19964;-37
2022/12/31 14:17:26;;;;;;;;;;;13.40;99.90;;;;;;5135596;27;19911;-38
2022/12/31 14:19:56;;;;;;;;;;;13.40;99.90;;;;;;5136309;27;20289;-37
2022/12/31 14:22:45;;;;;;;;;;;13.40;99.90;;;;;;5136151;27;19914;-38
2022/12/31 14:25:26;;;;;;;;;;;13.40;99.90;;;;;;5135864;27;19907;-37
2022/12/31 14:27:53;;;;;;;;;;;13.50;99.90;;;;;;5136278;27;19968;-37
2022/12/31 14:30:19;;;;;;;;;;;13.50;99.90;;;;;;5135359;27;19914;-38
2022/12/31 14:32:45;;;;;;;;;;;13.50;99.90;;;;;;5136121;27;20412;-37
2022/12/31 14:35:29;;;;;;;;;;;13.50;99.90;;;;;;5125739;27;19912;-37
2022/12/31 14:37:59;;;;;;;;;;;13.50;99.90;;;;;;5128394;27;19911;-37
2022/12/31 14:40:44;;;;;;;;;;;13.60;99.90;;;;;;5135834;27;19907;-38
2022/12/31 14:43:30;;;;;;;;;;;13.60;99.90;;;;;;5125294;27;19920;-37
2022/12/31 14:46:09;;;;;;;;;;;13.60;99.90;;;;;;5114831;27;20525;-38
2022/12/31 14:49:04;;;;;;;;;;;13.60;99.90;;;;;;5135877;27;19912;-39